Time;durP1;ratioP1;P1;durP2;ratioP2;P2;SDS_P1;SDS_P2;PMS_P1;PMS_P2;Temp;Humidity;BMP_temperature;BMP_pressure;BME280_temperature;BME280_humidity;BME280_pressure;Samples;Min_cycle;Max_cycle;Signal;HPM_P1;HPM_P2
2022/05/25 00:01:44;;;;;;;11.82;8.55;;;;;;;15.03;96.65;98879.09;8180526;28;20411;-74
2022/05/25 00:05:45;;;;;;;11.45;8.82;;;;;;;15.01;96.58;98881.38;8180017;28;20480;-72
2022/05/25 00:09:46;;;;;;;15.68;8.45;;;;;;;14.93;96.89;98885.78;8177663;28;20059;-73
2022/05/25 00:13:47;;;;;;;12.02;8.35;;;;;;;14.88;96.84;98877.09;8168863;29;20464;-72
2022/05/25 00:17:48;;;;;;;15.55;7.97;;;;;;;14.82;96.94;98878.44;8171325;28;20107;-73
2022/05/25 00:21:49;;;;;;;12.70;7.78;;;;;;;14.75;97.00;98882.53;8172458;28;20051;-72
2022/05/25 00:25:50;;;;;;;13.15;8.32;;;;;;;14.69;96.96;98881.19;8179981;28;20142;-72
2022/05/25 00:29:51;;;;;;;15.48;7.40;;;;;;;14.66;96.89;98883.78;8174874;28;20047;-72
2022/05/25 00:33:51;;;;;;;11.52;7.88;;;;;;;14.63;96.96;98889.91;8182245;28;20134;-72
2022/05/25 00:37:52;;;;;;;13.25;8.10;;;;;;;14.60;96.94;98904.97;8173162;28;20058;-72
2022/05/25 00:41:55;;;;;;;14.02;7.45;;;;;;;14.63;96.48;98915.16;8179977;28;20376;-73
2022/05/25 00:46:00;;;;;;;11.63;6.88;;;;;;;14.66;96.09;98914.47;8182399;28;20480;-72
2022/05/25 00:50:03;;;;;;;13.40;7.35;;;;;;;14.66;96.16;98909.03;8177199;28;20131;-71
2022/05/25 00:54:08;;;;;;;9.68;6.20;;;;;;;14.66;96.31;98903.59;8218520;28;20056;-72
2022/05/25 00:58:09;;;;;;;10.63;6.40;;;;;;;14.66;96.28;98909.03;8189625;28;20500;-72
2022/05/25 01:02:11;;;;;;;12.27;6.63;;;;;;;14.65;96.35;98907.44;8186461;28;20051;-72
2022/05/25 01:06:21;;;;;;;9.32;6.72;;;;;;;14.61;96.38;98917.41;8195235;28;20050;-72
2022/05/25 01:10:32;;;;;;;9.65;6.15;;;;;;;14.55;96.82;98918.78;8172066;29;20380;-72
2022/05/25 01:14:51;;;;;;;7.95;5.80;;;;;;;14.53;97.07;98921.06;8198369;28;20071;-71
2022/05/25 01:19:10;;;;;;;8.60;6.32;;;;;;;14.51;97.00;98917.06;8174234;29;20048;-71
2022/05/25 01:23:38;;;;;;;6.63;5.70;;;;;;;14.50;96.83;98927.16;8185294;28;20047;-71
2022/05/25 01:27:45;;;;;;;10.43;6.53;;;;;;;14.52;96.62;98935.75;8191002;28;20415;-72
2022/05/25 01:32:09;;;;;;;20.25;7.07;;;;;;;14.53;96.61;98937.34;8196568;28;20302;-72
2022/05/25 01:36:18;;;;;;;13.38;7.03;;;;;;;14.53;96.33;98931.91;8199077;28;20427;-73
2022/05/25 01:40:36;;;;;;;10.87;6.13;;;;;;;14.54;96.62;98938.16;8235181;28;20061;-71
2022/05/25 01:44:43;;;;;;;12.10;6.80;;;;;;;14.55;96.59;98934.28;8235786;28;20364;-71
2022/05/25 01:48:45;;;;;;;11.13;6.82;;;;;;;14.56;96.52;98942.09;8243416;28;20042;-72
2022/05/25 01:52:50;;;;;;;10.02;7.40;;;;;;;14.55;96.73;98929.63;8228915;28;20048;-72
2022/05/25 01:56:54;;;;;;;13.90;7.55;;;;;;;14.56;96.73;98935.88;8222088;28;20046;-73
2022/05/25 02:00:58;;;;;;;11.00;7.38;;;;;;;14.56;96.67;98931.22;8237564;28;20052;-70
2022/05/25 02:05:00;;;;;;;10.60;8.25;;;;;;;14.57;96.57;98932.81;8252269;28;20510;-71
2022/05/25 02:09:09;;;;;;;14.23;8.32;;;;;;;14.56;96.78;98930.44;8247510;28;20112;-72
2022/05/25 02:13:27;;;;;;;9.98;8.20;;;;;;;14.56;96.91;98936.66;8180966;29;20095;-72
2022/05/25 02:17:52;;;;;;;11.65;8.63;;;;;;;14.53;97.02;98934.63;8191528;28;20432;-74
2022/05/25 02:22:07;;;;;;;13.45;9.90;;;;;;;14.53;96.94;98931.91;8184714;28;20488;-72
2022/05/25 02:26:16;;;;;;;14.18;8.98;;;;;;;14.55;96.75;98937.78;8185931;28;20047;-74
2022/05/25 02:30:20;;;;;;;17.52;10.95;;;;;;;14.52;96.98;98946.63;8194564;28;20130;-72
2022/05/25 02:34:23;;;;;;;18.67;10.52;;;;;;;14.49;96.98;98947.28;8188916;28;20098;-73
2022/05/25 02:38:24;;;;;;;13.52;10.15;;;;;;;14.47;97.29;98944.13;8175433;28;20046;-73
2022/05/25 02:42:26;;;;;;;17.20;10.35;;;;;;;14.49;96.98;98958.16;8174480;28;20059;-72
2022/05/25 02:46:27;;;;;;;14.18;10.23;;;;;;;14.49;97.07;98957.41;8175100;28;20074;-72
2022/05/25 02:50:28;;;;;;;13.48;10.50;;;;;;;14.49;96.94;98963.59;8180409;28;20048;-71
2022/05/25 02:54:29;;;;;;;14.82;10.70;;;;;;;14.53;96.89;98959.09;8172956;28;20063;-72
2022/05/25 02:58:30;;;;;;;15.95;10.80;;;;;;;14.55;96.88;98954.09;8172150;28;20069;-72
2022/05/25 03:02:31;;;;;;;19.67;12.05;;;;;;;14.57;96.91;98960.00;8182050;28;20047;-72
2022/05/25 03:06:32;;;;;;;16.23;10.73;;;;;;;14.58;96.96;98967.03;8185506;28;20073;-73
2022/05/25 03:10:33;;;;;;;12.35;10.27;;;;;;;14.60;96.90;98975.63;8172286;28;20053;-72
2022/05/25 03:14:35;;;;;;;12.95;9.70;;;;;;;14.58;96.98;98972.47;8184699;28;20044;-72
2022/05/25 03:18:36;;;;;;;13.18;10.25;;;;;;;14.54;97.19;98970.75;8187425;28;20464;-72
2022/05/25 03:22:39;;;;;;;15.70;9.88;;;;;;;14.54;97.26;98976.19;8172706;28;20055;-71
2022/05/25 03:26:40;;;;;;;13.07;9.75;;;;;;;14.52;97.54;98986.59;8170718;28;20054;-72
2022/05/25 03:30:43;;;;;;;13.10;10.48;;;;;;;14.52;97.36;98990.13;8195108;28;20052;-72
2022/05/25 03:34:47;;;;;;;20.83;11.60;;;;;;;14.52;97.38;98995.53;8175461;28;20084;-72
2022/05/25 03:38:48;;;;;;;21.02;14.10;;;;;;;14.49;97.45;98992.72;8174289;28;20056;-72
2022/05/25 03:42:49;;;;;;;16.65;12.77;;;;;;;14.49;97.41;98988.06;8173050;28;20075;-73
2022/05/25 03:46:51;;;;;;;16.75;11.27;;;;;;;14.51;97.30;98993.94;8169255;29;20063;-74
2022/05/25 03:50:52;;;;;;;14.85;11.65;;;;;;;14.54;97.07;98987.06;8179452;28;20502;-72
2022/05/25 03:54:53;;;;;;;15.68;12.07;;;;;;;14.55;97.14;98989.44;8169997;29;20048;-74
2022/05/25 03:58:53;;;;;;;15.38;11.93;;;;;;;14.57;97.29;98998.03;8176933;28;20146;-72
2022/05/25 04:02:56;;;;;;;14.50;11.35;;;;;;;14.60;97.30;98997.34;8177774;28;20069;-73
2022/05/25 04:06:57;;;;;;;17.80;12.35;;;;;;;14.62;97.08;99000.53;8194485;28;20054;-73
2022/05/25 04:10:58;;;;;;;16.00;11.38;;;;;;;14.62;97.31;98995.09;8192998;28;20052;-73
2022/05/25 04:15:00;;;;;;;14.88;11.52;;;;;;;14.62;97.44;99000.53;8181559;28;20475;-73
2022/05/25 04:19:01;;;;;;;16.73;12.40;;;;;;;14.65;97.14;99010.72;8183190;28;20683;-73
2022/05/25 04:23:02;;;;;;;19.13;13.00;;;;;;;14.61;97.39;99015.25;8187987;28;20054;-73
2022/05/25 04:27:04;;;;;;;14.20;12.02;;;;;;;14.59;97.61;99016.75;8190506;28;20134;-73
2022/05/25 04:31:05;;;;;;;19.65;12.82;;;;;;;14.60;97.62;99018.31;8181818;28;20419;-71
2022/05/25 04:35:07;;;;;;;19.73;11.68;;;;;;;14.60;97.75;99024.53;8178323;28;20059;-71
2022/05/25 04:39:07;;;;;;;17.48;12.23;;;;;;;14.62;97.66;99019.56;8180157;28;20493;-72
2022/05/25 04:43:12;;;;;;;16.10;11.77;;;;;;;14.66;97.45;99025.13;8173449;29;20098;-71
2022/05/25 04:47:13;;;;;;;15.27;12.23;;;;;;;14.70;97.21;99028.75;8175002;29;20416;-72
2022/05/25 04:51:14;;;;;;;13.63;11.35;;;;;;;14.75;97.23;99026.59;8179539;29;20141;-73
2022/05/25 04:59:36;;;;;;;16.00;12.63;;;;;;;14.76;97.52;99028.19;8173368;29;20043;-72
2022/05/25 05:03:38;;;;;;;13.20;11.13;;;;;;;14.78;97.32;99031.38;8176485;29;20064;-73
2022/05/25 05:07:39;;;;;;;17.52;12.82;;;;;;;14.79;97.40;99032.97;8175694;29;20052;-73
2022/05/25 05:11:43;;;;;;;17.60;9.50;;;;;;;14.77;97.25;99040.66;8198379;28;20138;-73
2022/05/25 05:15:50;;;;;;;16.10;8.98;;;;;;;14.75;97.08;99048.34;8197787;28;20051;-72
2022/05/25 05:19:51;;;;;;;19.02;10.45;;;;;;;14.76;97.11;99049.13;8171124;29;20048;-71
2022/05/25 05:23:52;;;;;;;14.55;11.00;;;;;;;14.76;97.04;99055.38;8185138;28;20523;-72
2022/05/25 05:27:53;;;;;;;15.63;11.77;;;;;;;14.74;97.34;99063.09;8199442;29;20047;-72
2022/05/25 05:31:54;;;;;;;19.88;11.57;;;;;;;14.80;97.48;99078.03;8202621;28;20058;-72
2022/05/25 05:36:04;;;;;;;17.10;12.02;;;;;;;14.85;97.24;99095.28;8202176;28;20396;-73
2022/05/25 05:40:08;;;;;;;13.55;11.13;;;;;;;14.82;97.06;99102.16;8170456;29;20056;-76
2022/05/25 05:44:10;;;;;;;15.70;11.73;;;;;;;14.79;97.54;99108.28;8185186;28;20208;-73
2022/05/25 05:48:19;;;;;;;16.98;11.30;;;;;;;14.84;97.61;99115.44;8192946;29;20509;-72
2022/05/25 05:52:20;;;;;;;12.50;10.88;;;;;;;14.82;97.50;99095.94;8201274;28;20054;-72
2022/05/25 05:56:21;;;;;;;14.27;10.35;;;;;;;14.82;97.55;99101.38;8202084;28;20519;-73
2022/05/25 06:00:22;;;;;;;13.55;8.68;;;;;;;14.76;97.30;99103.50;8201427;28;20058;-72
2022/05/25 06:04:23;;;;;;;15.60;8.48;;;;;;;14.70;97.62;99100.22;8201767;28;20055;-71
2022/05/25 06:08:24;;;;;;;14.35;10.48;;;;;;;14.76;97.47;99098.88;8201476;28;20075;-73
2022/05/25 06:12:27;;;;;;;11.18;7.53;;;;;;;14.74;96.71;99094.91;8201249;28;20047;-73
2022/05/25 06:20:49;;;;;;;10.38;6.97;;;;;;;14.67;96.00;99100.88;8201066;28;20043;-72
2022/05/25 06:24:51;;;;;;;9.10;7.03;;;;;;;14.72;95.76;99108.84;8199666;28;20058;-72
2022/05/25 06:28:55;;;;;;;8.07;6.35;;;;;;;14.72;95.44;99119.72;8200739;28;20062;-72
2022/05/25 06:32:56;;;;;;;10.25;6.25;;;;;;;14.70;95.06;99124.66;8214233;28;20047;-72
2022/05/25 06:36:57;;;;;;;10.70;6.47;;;;;;;14.66;95.21;99137.34;8200272;28;20175;-72
2022/05/25 06:40:58;;;;;;;10.77;6.47;;;;;;;14.62;95.14;99141.88;8200716;28;20071;-72
2022/05/25 06:44:59;;;;;;;9.20;6.82;;;;;;;14.64;95.15;99145.06;8200311;28;20146;-72
2022/05/25 06:48:59;;;;;;;8.73;7.13;;;;;;;14.74;94.74;99141.94;8199714;28;20047;-73
2022/05/25 06:53:01;;;;;;;8.75;6.32;;;;;;;14.87;94.51;99158.25;8199702;28;20058;-72
2022/05/25 06:57:02;;;;;;;10.55;6.28;;;;;;;14.92;94.06;99161.56;8200386;28;20419;-72
2022/05/25 07:01:04;;;;;;;9.07;6.22;;;;;;;15.00;93.64;99170.75;8199757;28;20050;-72
2022/05/25 07:05:05;;;;;;;7.38;5.82;;;;;;;15.02;93.32;99173.94;8199163;28;20476;-72
2022/05/25 07:09:08;;;;;;;10.45;6.88;;;;;;;15.11;93.26;99182.81;8165782;29;20056;-73
2022/05/25 07:13:09;;;;;;;10.43;7.28;;;;;;;15.20;92.86;99178.84;8179115;28;20134;-71
2022/05/25 07:17:10;;;;;;;11.57;6.80;;;;;;;15.30;92.36;99183.06;8199256;28;20062;-72
2022/05/25 07:21:17;;;;;;;14.65;7.88;;;;;;;15.43;91.98;99187.41;8199812;28;20075;-72
2022/05/25 07:25:18;;;;;;;12.02;7.35;;;;;;;15.55;90.85;99184.72;8212691;28;20055;-72
2022/05/25 07:29:19;;;;;;;11.23;7.03;;;;;;;15.69;90.56;99172.69;8199202;28;20423;-72
2022/05/25 07:33:20;;;;;;;8.40;6.45;;;;;;;15.81;89.86;99180.88;8198860;28;20051;-73
2022/05/25 07:37:23;;;;;;;14.75;8.27;;;;;;;15.94;89.54;99185.97;8195767;28;20054;-73
2022/05/25 07:41:24;;;;;;;12.00;7.75;;;;;;;16.04;89.40;99190.16;8212633;28;20055;-72
2022/05/25 07:45:26;;;;;;;18.33;7.85;;;;;;;16.10;88.93;99193.44;8199074;28;20047;-73
2022/05/25 07:49:27;;;;;;;11.00;7.65;;;;;;;15.99;89.30;99204.00;8197523;28;20056;-73
2022/05/25 07:57:48;;;;;;;10.35;7.30;;;;;;;16.00;87.65;99211.03;8199172;29;20062;-73
2022/05/25 08:06:17;;;;;;;9.95;7.18;;;;;;;15.92;87.49;99211.94;8197859;28;20058;-71
2022/05/25 08:10:23;;;;;;;11.13;7.38;;;;;;;15.95;87.88;99208.53;8199093;28;20507;-72
2022/05/25 08:14:25;;;;;;;11.48;8.32;;;;;;;15.99;88.80;99209.44;8198529;28;20051;-73
2022/05/25 08:18:26;;;;;;;7.57;6.28;;;;;;;15.92;89.02;99212.72;8164393;28;20492;-72
2022/05/25 08:22:27;;;;;;;11.68;6.70;;;;;;;15.84;88.97;99215.59;8195651;28;20039;-74
2022/05/25 08:26:28;;;;;;;9.55;5.88;;;;;;;15.78;89.27;99220.47;8197593;28;20516;-73
2022/05/25 08:30:30;;;;;;;8.52;6.47;;;;;;;15.72;89.47;99215.56;8197805;28;20047;-73
2022/05/25 08:34:32;;;;;;;9.82;7.10;;;;;;;15.73;89.34;99219.88;8198464;28;20114;-73
2022/05/25 08:38:36;;;;;;;12.07;6.78;;;;;;;15.59;90.29;99212.84;8198555;28;20452;-72
2022/05/25 08:42:49;;;;;;;12.30;8.32;;;;;;;15.73;90.24;99206.28;8198147;28;20094;-72
2022/05/25 08:46:56;;;;;;;12.77;7.57;;;;;;;15.74;90.15;99202.41;8200441;28;20434;-72
2022/05/25 08:51:03;;;;;;;14.23;8.13;;;;;;;15.65;90.68;99205.25;8203952;28;20082;-73
2022/05/25 08:55:08;;;;;;;10.35;7.35;;;;;;;15.62;90.81;99195.84;8201980;28;20086;-75
2022/05/25 08:59:14;;;;;;;13.40;7.63;;;;;;;15.73;90.71;99189.94;8185447;28;20062;-72
2022/05/25 09:03:30;;;;;;;14.35;8.15;;;;;;;15.78;90.49;99181.53;8201746;29;20073;-73
2022/05/25 09:08:03;;;;;;;10.13;7.45;;;;;;;15.84;90.24;99188.34;8202117;29;20051;-72
2022/05/25 09:12:14;;;;;;;12.27;8.60;;;;;;;16.05;89.43;99202.63;8136192;29;20044;-73
2022/05/25 09:16:20;;;;;;;10.82;9.02;;;;;;;16.16;89.50;99198.31;8136144;29;20519;-72
2022/05/25 09:20:43;;;;;;;11.07;8.32;;;;;;;16.21;89.22;99216.34;8136243;29;20056;-72
2022/05/25 09:24:46;;;;;;;10.80;8.00;;;;;;;16.16;88.81;99225.56;8120333;29;20701;-72
2022/05/25 09:28:49;;;;;;;13.30;8.32;;;;;;;16.28;88.35;99233.72;8135707;29;20059;-73
2022/05/25 09:32:59;;;;;;;10.63;7.82;;;;;;;16.41;87.97;99243.44;8135650;29;20067;-72
2022/05/25 09:37:09;;;;;;;9.35;7.95;;;;;;;16.61;87.39;99240.94;8135429;29;20066;-72
2022/05/25 09:41:12;;;;;;;14.68;8.75;;;;;;;16.72;86.69;99239.31;8134163;29;20389;-72
2022/05/25 09:45:14;;;;;;;11.73;8.35;;;;;;;16.73;87.13;99243.63;8135252;29;20051;-73
2022/05/25 09:49:44;;;;;;;10.40;8.15;;;;;;;16.64;86.24;99256.63;8194754;28;20055;-72
2022/05/25 09:54:02;;;;;;;11.02;7.38;;;;;;;16.44;85.14;99253.66;8199885;28;20054;-72
2022/05/25 09:58:10;;;;;;;11.25;8.02;;;;;;;16.15;86.25;99251.22;8214780;28;20122;-73
2022/05/25 10:02:28;;;;;;;;;;;;;;;16.15;86.38;99240.31;8200053;28;20129;-73
2022/05/25 10:06:29;;;;;;;11.10;7.32;;;;;;;16.19;85.63;99241.22;8201649;29;19930;-73
2022/05/25 10:10:36;;;;;;;9.13;6.35;;;;;;;16.19;84.57;99252.09;8199407;28;20632;-72
2022/05/25 10:14:39;;;;;;;11.38;6.65;;;;;;;15.90;85.71;99255.06;8201452;28;20078;-74
2022/05/25 10:18:42;;;;;;;11.63;7.32;;;;;;;15.95;86.89;99257.56;8201131;28;20067;-72
2022/05/25 10:22:46;;;;;;;8.50;5.85;;;;;;;16.09;86.49;99258.03;8201204;28;20419;-73
2022/05/25 10:26:51;;;;;;;13.15;6.78;;;;;;;16.08;85.30;99256.41;8201464;28;20055;-72
2022/05/25 10:40:23;;;;;;;11.07;7.57;;;;;;;16.12;85.53;99232.84;8133293;29;20063;-72
2022/05/25 10:44:26;;;;;;;11.50;7.30;;;;;;;16.21;86.61;99222.59;8087913;29;20056;-72
2022/05/25 10:48:42;;;;;;;8.95;6.22;;;;;;;16.57;85.51;99223.66;8131677;29;20583;-72
2022/05/25 10:52:48;;;;;;;9.98;6.50;;;;;;;17.07;83.26;99225.88;8133175;29;20075;-72
2022/05/25 10:57:07;;;;;;;7.10;5.80;;;;;;;17.23;79.33;99240.38;8133086;29;20418;-72
2022/05/25 11:01:46;;;;;;;9.85;7.13;;;;;;;17.36;78.47;99241.06;8131911;29;20048;-73
2022/05/25 11:06:04;;;;;;;8.68;7.07;;;;;;;17.52;78.88;99228.25;8132535;29;20056;-73
2022/05/25 11:10:33;;;;;;;8.07;6.65;;;;;;;17.84;78.31;99238.06;8126467;29;20047;-74
2022/05/25 11:14:40;;;;;;;8.03;6.57;;;;;;;18.11;77.21;99248.09;8198406;28;20058;-73
2022/05/25 11:19:07;;;;;;;10.35;6.00;;;;;;;18.67;74.62;99245.03;8199515;28;20055;-72
2022/05/25 11:23:33;;;;;;;11.50;6.40;;;;;;;18.88;73.65;99253.69;8199802;28;20050;-72
2022/05/25 11:27:58;;;;;;;8.45;6.10;;;;;;;18.43;72.62;99248.00;8200085;28;20063;-73
2022/05/25 11:32:08;;;;;;;9.50;6.55;;;;;;;18.29;75.32;99256.69;8197524;28;20053;-73
2022/05/25 11:36:13;;;;;;;8.95;6.40;;;;;;;17.92;76.60;99261.69;8198759;28;20051;-74
2022/05/25 11:41:02;;;;;;;11.68;6.38;;;;;;;17.65;77.56;99257.09;8198701;28;20055;-74
2022/05/25 11:45:21;;;;;;;14.57;7.50;;;;;;;17.25;78.40;99255.22;8131283;29;20076;-73
2022/05/25 11:49:22;;;;;;;;;;;;;;;17.01;79.00;99255.34;8131563;29;20103;-74
2022/05/25 11:53:56;;;;;;;8.98;7.32;;;;;;;17.02;78.60;99251.50;8108852;29;19931;-73
2022/05/25 11:58:05;;;;;;;17.17;9.30;;;;;;;16.98;78.00;99256.03;8101025;29;20052;-73
2022/05/25 12:02:44;;;;;;;13.18;9.18;;;;;;;17.03;79.26;99274.09;8129015;29;20457;-72
2022/05/25 12:07:06;;;;;;;13.77;9.30;;;;;;;16.96;79.63;99258.34;8066700;29;20045;-73
2022/05/25 12:11:10;;;;;;;12.68;8.75;;;;;;;16.85;79.93;99257.22;8067321;29;20108;-73
2022/05/25 12:15:14;;;;;;;17.52;8.65;;;;;;;16.78;79.98;99267.94;8068674;29;20078;-75
2022/05/25 12:19:41;;;;;;;14.85;9.18;;;;;;;16.67;80.47;99270.34;8052351;29;20049;-74
2022/05/25 12:24:09;;;;;;;14.40;10.15;;;;;;;16.53;81.34;99266.38;8013671;29;20483;-74
2022/05/25 12:28:11;;;;;;;13.15;10.95;;;;;;;16.39;82.69;99267.53;8012166;29;20503;-73
2022/05/25 12:32:12;;;;;;;14.43;10.93;;;;;;;16.34;83.84;99265.03;8011089;29;20046;-74
2022/05/25 12:36:14;;;;;;;17.63;11.27;;;;;;;16.20;85.21;99264.59;8011921;29;20062;-73
2022/05/25 12:40:38;;;;;;;12.95;10.27;;;;;;;16.15;86.39;99267.56;8017363;29;20141;-74
2022/05/25 12:49:06;;;;;;;11.77;9.10;;;;;;;16.21;88.28;99266.19;8075879;29;20053;-73
2022/05/25 12:53:42;;;;;;;10.35;9.10;;;;;;;16.34;88.28;99265.03;8091437;29;20527;-74
2022/05/25 12:57:45;;;;;;;12.07;8.18;;;;;;;16.29;87.55;99278.88;8130660;29;20051;-73
2022/05/25 13:02:08;;;;;;;11.82;8.15;;;;;;;16.22;88.30;99273.25;8136611;29;20135;-73
2022/05/25 13:06:10;;;;;;;9.25;8.15;;;;;;;16.32;88.12;99270.03;8194402;28;20495;-75
2022/05/25 13:10:23;;;;;;;9.90;7.20;;;;;;;16.32;87.71;99267.31;8200892;29;20052;-74
2022/05/25 13:14:24;;;;;;;12.30;8.60;;;;;;;16.41;88.35;99276.16;8226588;28;20046;-74
2022/05/25 13:18:48;;;;;;;8.70;7.55;;;;;;;16.46;87.82;99267.75;8229967;28;20130;-74
2022/05/25 13:22:49;;;;;;;9.48;7.63;;;;;;;16.52;87.80;99259.34;8182361;28;20178;-73
2022/05/25 13:27:10;;;;;;;11.75;8.13;;;;;;;16.61;86.89;99268.19;8213628;28;20054;-73
2022/05/25 13:31:37;;;;;;;10.43;7.22;;;;;;;16.79;86.51;99281.22;8227947;28;20059;-73
2022/05/25 13:36:02;;;;;;;8.23;6.63;;;;;;;16.81;85.40;99278.94;8127903;29;20225;-74
2022/05/25 13:40:03;;;;;;;9.93;5.65;;;;;;;16.57;85.02;99272.72;8039753;29;20061;-73
2022/05/25 13:44:09;;;;;;;8.65;6.15;;;;;;;16.43;85.30;99268.44;8040886;29;20493;-73
2022/05/25 13:48:13;;;;;;;8.27;6.05;;;;;;;16.44;85.98;99264.56;8042629;29;20200;-73
2022/05/25 13:52:23;;;;;;;8.15;6.07;;;;;;;16.39;86.19;99264.78;8039641;29;20057;-73
2022/05/25 13:56:28;;;;;;;8.95;4.28;;;;;;;16.38;85.61;99255.06;8040337;29;20064;-73
2022/05/25 14:00:36;;;;;;;17.05;7.53;;;;;;;16.53;85.84;99266.38;8040123;29;20050;-74
2022/05/25 14:04:37;;;;;;;11.25;7.13;;;;;;;16.59;86.17;99275.94;8051194;29;20068;-74
2022/05/25 14:13:40;;;;;;;9.65;6.65;;;;;;;17.16;85.13;99262.00;8063183;29;20144;-74
2022/05/25 14:17:41;;;;;;;9.38;5.45;;;;;;;17.17;83.96;99269.84;8095825;29;20056;-73
2022/05/25 14:21:45;;;;;;;7.25;4.78;;;;;;;17.26;81.64;99267.75;8069426;29;20045;-74
2022/05/25 14:25:46;;;;;;;5.22;4.22;;;;;;;17.30;80.51;99274.09;8052880;29;20666;-73
2022/05/25 14:29:47;;;;;;;10.63;3.97;;;;;;;17.29;80.28;99268.97;8069803;29;20072;-73
2022/05/25 14:34:03;;;;;;;5.65;3.90;;;;;;;17.36;78.54;99271.09;8053939;29;20053;-74
2022/05/25 14:38:08;;;;;;;5.60;3.90;;;;;;;17.39;78.40;99270.41;8052924;29;20447;-73
2022/05/25 14:42:21;;;;;;;5.50;4.65;;;;;;;17.53;79.77;99276.25;8037446;29;20061;-73
2022/05/25 14:46:29;;;;;;;7.43;4.78;;;;;;;17.56;79.31;99272.81;8063534;29;20142;-73
2022/05/25 14:50:34;;;;;;;5.80;4.50;;;;;;;17.40;80.38;99271.97;8194767;28;20056;-73
2022/05/25 14:54:35;;;;;;;6.35;3.45;;;;;;;17.48;78.04;99262.84;8197816;28;20048;-73
2022/05/25 14:58:47;;;;;;;4.97;3.67;;;;;;;17.33;79.28;99271.81;8197106;28;20164;-73
2022/05/25 15:02:58;;;;;;;8.82;4.07;;;;;;;17.24;79.88;99270.00;8198199;28;20051;-74
2022/05/25 15:07:01;;;;;;;7.20;3.53;;;;;;;17.09;79.27;99262.59;8197790;28;20054;-74
2022/05/25 15:11:26;;;;;;;5.68;3.00;;;;;;;17.09;79.72;99251.66;8197188;28;20506;-73
2022/05/25 15:20:09;;;;;;;2.80;1.65;;;;;;;20.70;66.18;99257.59;8171971;28;20047;-74
2022/05/25 15:24:14;;;;;;;5.07;1.73;;;;;;;20.93;61.80;99272.81;8147621;29;20051;-73
2022/05/25 15:28:18;;;;;;;3.38;1.38;;;;;;;21.21;60.38;99266.88;8171845;29;20514;-74
2022/05/25 15:32:20;;;;;;;2.70;1.10;;;;;;;20.39;60.19;99270.50;8175635;28;20574;-74
2022/05/25 15:36:22;;;;;;;1.75;1.00;;;;;;;20.20;58.30;99273.28;8179247;28;20079;-74
2022/05/25 15:40:24;;;;;;;4.82;1.17;;;;;;;20.56;56.05;99275.47;8188068;28;20063;-74
2022/05/25 15:44:25;;;;;;;1.02;0.80;;;;;;;19.96;59.33;99273.72;8198543;28;20080;-73
2022/05/25 15:48:26;;;;;;;3.20;0.88;;;;;;;19.51;58.86;99274.50;8197504;28;20142;-73
2022/05/25 15:52:27;;;;;;;1.83;1.00;;;;;;;19.20;61.13;99269.97;8200109;28;20058;-72
2022/05/25 15:56:28;;;;;;;4.63;1.27;;;;;;;19.54;61.32;99268.28;8201672;28;20134;-73
2022/05/25 16:00:32;;;;;;;1.67;1.33;;;;;;;19.81;62.14;99270.75;8205671;28;20051;-74
2022/05/25 16:04:35;;;;;;;3.22;1.50;;;;;;;19.59;63.72;99271.53;8208279;28;20607;-74
2022/05/25 16:12:56;;;;;;;3.83;1.67;;;;;;;19.14;64.63;99271.44;8202223;28;20131;-73
2022/05/25 16:16:57;;;;;;;6.38;2.20;;;;;;;18.99;66.66;99265.66;8219424;28;20055;-73
2022/05/25 16:20:59;;;;;;;3.45;2.20;;;;;;;18.68;68.21;99260.31;8251816;28;20454;-73
2022/05/25 16:25:03;;;;;;;3.60;1.75;;;;;;;18.47;67.50;99260.59;8215014;28;20105;-74
2022/05/25 16:29:06;;;;;;;3.17;2.13;;;;;;;18.55;66.42;99261.59;8155785;29;20047;-73
2022/05/25 16:33:08;;;;;;;7.78;2.17;;;;;;;19.14;64.71;99263.22;8203530;28;20582;-73
2022/05/25 16:37:12;;;;;;;1.90;1.33;;;;;;;20.07;61.13;99269.19;8202980;28;20105;-73
2022/05/25 16:41:13;;;;;;;9.32;1.35;;;;;;;20.39;59.49;99254.03;8216803;28;20566;-73
2022/05/25 16:45:14;;;;;;;2.08;1.30;;;;;;;19.47;62.19;99257.97;8224448;28;20043;-73
2022/05/25 16:49:15;;;;;;;3.50;1.23;;;;;;;18.74;63.99;99258.88;8220355;28;20044;-73
2022/05/25 16:53:16;;;;;;;3.60;1.20;;;;;;;18.14;63.72;99263.75;8200656;28;20507;-74
2022/05/25 16:57:17;;;;;;;3.65;1.42;;;;;;;17.77;65.76;99270.66;8206107;28;20627;-74
2022/05/25 17:01:20;;;;;;;5.63;1.95;;;;;;;17.37;67.24;99272.69;8203236;28;20051;-74
2022/05/25 17:05:21;;;;;;;2.78;1.10;;;;;;;17.22;67.35;99266.88;8214762;28;20055;-73
2022/05/25 17:09:22;;;;;;;4.55;1.30;;;;;;;17.03;67.92;99263.97;8202188;28;20052;-73
2022/05/25 17:13:27;;;;;;;3.13;1.63;;;;;;;16.83;69.46;99264.97;8202421;28;20055;-73
2022/05/25 17:17:28;;;;;;;5.60;1.58;;;;;;;16.61;70.57;99270.91;8230517;28;20050;-77
2022/05/25 17:21:32;;;;;;;6.43;1.60;;;;;;;16.54;70.72;99267.97;8230129;28;20101;-73
2022/05/25 17:25:34;;;;;;;2.30;1.75;;;;;;;16.47;71.77;99274.78;8263107;28;20105;-74
2022/05/25 17:29:35;;;;;;;5.85;2.20;;;;;;;16.32;72.63;99270.03;8230200;28;20064;-73
2022/05/25 17:33:36;;;;;;;3.58;2.20;;;;;;;16.24;73.34;99270.94;8207057;28;20047;-74
2022/05/25 17:41:59;;;;;;;6.63;2.90;;;;;;;16.06;74.61;99272.34;8225905;28;20050;-73
2022/05/25 17:46:01;;;;;;;4.68;2.80;;;;;;;16.03;75.43;99281.16;8193135;28;20050;-73
2022/05/25 17:50:02;;;;;;;6.07;3.78;;;;;;;15.97;76.29;99271.63;8195029;28;20039;-73
2022/05/25 17:54:03;;;;;;;6.10;3.08;;;;;;;15.86;77.18;99275.97;8203550;28;20051;-74
2022/05/25 17:58:06;;;;;;;5.85;3.30;;;;;;;15.76;77.84;99273.66;8185771;28;20455;-74
2022/05/25 18:02:07;;;;;;;7.75;4.20;;;;;;;15.58;79.12;99271.16;8199986;29;20121;-73
2022/05/25 18:06:09;;;;;;;7.32;4.40;;;;;;;15.49;79.91;99256.78;8215203;28;20074;-74
2022/05/25 18:10:14;;;;;;;8.77;4.93;;;;;;;15.38;80.38;99266.53;8201637;28;20058;-73
2022/05/25 18:14:26;;;;;;;10.15;4.50;;;;;;;15.35;80.79;99277.28;8201903;28;20463;-73
2022/05/25 18:18:27;;;;;;;9.15;4.72;;;;;;;15.29;81.36;99279.41;8201105;28;20075;-72
2022/05/25 18:22:28;;;;;;;7.38;5.03;;;;;;;15.18;81.59;99272.81;8201290;28;20121;-72
2022/05/25 18:26:29;;;;;;;6.93;4.55;;;;;;;15.08;82.12;99273.22;8197509;28;20044;-72
2022/05/25 18:30:32;;;;;;;9.63;4.47;;;;;;;14.98;82.67;99279.06;8203499;28;20543;-73
2022/05/25 18:34:34;;;;;;;9.23;4.43;;;;;;;14.90;83.08;99282.69;8201098;28;20074;-73
2022/05/25 18:38:35;;;;;;;6.45;4.10;;;;;;;14.77;83.23;99293.47;8175167;28;20091;-73
2022/05/25 18:42:36;;;;;;;9.35;4.82;;;;;;;14.69;83.32;99299.78;8202502;28;20051;-72
2022/05/25 18:46:37;;;;;;;6.78;4.38;;;;;;;14.59;83.47;99300.16;8201129;28;20506;-73
2022/05/25 18:50:38;;;;;;;7.03;4.30;;;;;;;14.46;83.88;99306.66;8195675;28;20415;-72
2022/05/25 18:54:44;;;;;;;7.25;4.10;;;;;;;14.32;84.51;99300.63;8198412;28;20051;-72
2022/05/25 18:58:46;;;;;;;9.95;4.70;;;;;;;14.13;85.22;99313.81;8196522;28;20150;-73
2022/05/25 19:02:47;;;;;;;14.40;4.78;;;;;;;14.04;85.43;99313.06;8206845;28;20483;-72
2022/05/25 19:06:48;;;;;;;8.55;3.75;;;;;;;13.98;85.43;99319.81;8178953;28;20074;-73
2022/05/25 19:10:49;;;;;;;9.60;3.95;;;;;;;13.96;85.04;99320.91;8185504;28;20062;-73
2022/05/25 19:14:51;;;;;;;6.30;3.88;;;;;;;13.96;85.03;99326.34;8189958;28;20051;-74
2022/05/25 19:18:51;;;;;;;9.27;4.40;;;;;;;13.96;84.73;99325.53;8195024;28;20065;-73
2022/05/25 19:23:00;;;;;;;11.07;4.50;;;;;;;13.85;85.10;99325.09;8199144;28;20047;-73
2022/05/25 19:27:02;;;;;;;9.18;4.40;;;;;;;13.77;85.30;99333.28;8196777;28;20487;-73
2022/05/25 19:31:04;;;;;;;6.68;4.03;;;;;;;13.69;85.98;99343.06;8198903;28;20138;-72
2022/05/25 19:35:06;;;;;;;7.90;4.72;;;;;;;13.74;85.46;99344.81;8196290;28;20412;-72
2022/05/25 19:39:08;;;;;;;8.43;5.13;;;;;;;13.59;86.53;99343.38;8186682;29;20047;-72
2022/05/25 19:43:32;;;;;;;9.07;5.43;;;;;;;13.50;86.90;99345.31;8195492;28;21343;-72
2022/05/25 19:47:34;;;;;;;10.57;6.25;;;;;;;13.42;87.54;99344.22;8129942;29;20160;-72
2022/05/25 19:51:36;;;;;;;10.32;5.45;;;;;;;13.38;88.93;99351.41;8129711;29;20155;-74
2022/05/25 19:55:38;;;;;;;13.27;5.63;;;;;;;13.36;89.54;99352.84;8128663;29;20044;-72